createdAt,value
2019-05-06T00:00:59.344Z,5.00
2019-05-06T00:03:26.639Z,5.00
2019-05-06T00:05:55.102Z,5.00
2019-05-06T00:08:23.762Z,5.10
2019-05-06T00:10:54.107Z,5.00
2019-05-06T00:13:24.162Z,5.00
2019-05-06T00:15:54.354Z,5.00
2019-05-06T00:18:24.520Z,5.10
2019-05-06T00:20:54.818Z,5.00
2019-05-06T00:23:25.299Z,5.00
2019-05-06T00:25:55.528Z,5.10
2019-05-06T00:28:37.901Z,5.00
2019-05-06T00:31:14.015Z,5.00
2019-05-06T00:33:40.822Z,5.00
2019-05-06T00:36:09.104Z,5.00
2019-05-06T00:38:39.490Z,5.00
2019-05-06T00:41:27.863Z,5.00
2019-05-06T00:43:56.686Z,5.00
2019-05-06T00:46:25.338Z,5.00
2019-05-06T00:48:54.264Z,5.10
2019-05-06T00:51:24.217Z,5.10
2019-05-06T00:54:00.319Z,5.10
2019-05-06T00:56:28.934Z,5.10
2019-05-06T00:58:57.573Z,5.10
2019-05-06T01:01:29.617Z,5.10
2019-05-06T01:03:56.113Z,5.20
2019-05-06T01:06:24.714Z,5.20
2019-05-06T01:08:54.387Z,5.10
2019-05-06T01:11:24.081Z,5.10
2019-05-06T01:14:00.126Z,5.10
2019-05-06T01:16:29.232Z,5.10
2019-05-06T01:18:57.862Z,5.10
2019-05-06T01:21:26.309Z,5.10
2019-05-06T01:23:54.851Z,5.20
2019-05-06T01:26:24.236Z,5.10
2019-05-06T01:28:54.540Z,5.10
2019-05-06T01:31:24.857Z,5.10
2019-05-06T01:33:53.829Z,5.10
2019-05-06T01:36:24.784Z,5.20
2019-05-06T01:39:00.322Z,5.20
2019-05-06T01:41:46.827Z,5.10
2019-05-06T01:44:15.284Z,5.10
2019-05-06T01:46:44.711Z,5.20
2019-05-06T01:49:13.751Z,5.20
2019-05-06T01:51:43.786Z,5.20
2019-05-06T01:54:14.137Z,5.20
2019-05-06T01:56:44.426Z,5.20
2019-05-06T01:59:13.998Z,5.20
2019-05-06T02:01:54.788Z,5.20
2019-05-06T02:04:13.851Z,5.20
2019-05-06T02:06:43.757Z,5.20
2019-05-06T02:09:13.788Z,5.10
2019-05-06T02:11:44.186Z,5.10
2019-05-06T02:14:14.004Z,5.00
2019-05-06T02:16:43.666Z,5.00
2019-05-06T02:19:12.126Z,5.00
2019-05-06T02:21:43.843Z,5.00
2019-05-06T02:24:13.932Z,5.00
2019-05-06T02:26:43.685Z,5.00
2019-05-06T02:29:15.103Z,5.00
2019-05-06T02:31:51.421Z,5.00
2019-05-06T02:34:25.376Z,5.10
2019-05-06T02:36:55.669Z,5.00
2019-05-06T02:39:24.117Z,5.10
2019-05-06T02:41:54.922Z,5.10
2019-05-06T02:44:23.908Z,5.10
2019-05-06T02:46:54.389Z,5.10
2019-05-06T02:49:24.779Z,5.10
2019-05-06T02:51:54.570Z,5.10
2019-05-06T02:54:23.701Z,5.10
2019-05-06T02:56:53.314Z,5.10
2019-05-06T02:59:24.122Z,5.10
2019-05-06T03:01:53.772Z,5.10
2019-05-06T03:04:23.660Z,5.20
2019-05-06T03:06:53.296Z,5.20
2019-05-06T03:09:23.347Z,5.20
2019-05-06T03:11:54.017Z,5.20
2019-05-06T03:14:23.343Z,5.20
2019-05-06T03:16:53.865Z,5.20
2019-05-06T03:19:24.020Z,5.20
2019-05-06T03:21:54.711Z,5.20
2019-05-06T03:24:25.066Z,5.10
2019-05-06T03:26:57.057Z,5.10
2019-05-06T03:29:25.450Z,5.10
2019-05-06T03:31:56.464Z,5.10
2019-05-06T03:34:49.368Z,5.10
2019-05-06T03:36:56.485Z,5.10
2019-05-06T03:39:24.693Z,5.10
2019-05-06T03:41:53.784Z,5.10
2019-05-06T03:44:23.911Z,5.10
2019-05-06T03:47:13.874Z,5.10
2019-05-06T03:49:50.275Z,5.10
2019-05-06T03:52:22.921Z,5.10
2019-05-06T03:54:52.985Z,5.20
2019-05-06T03:57:23.137Z,5.20
2019-05-06T03:59:52.949Z,5.30
2019-05-06T04:02:23.790Z,5.30
2019-05-06T04:04:55.744Z,5.40
2019-05-06T04:07:23.395Z,5.40
2019-05-06T04:09:53.677Z,5.50
2019-05-06T04:12:23.502Z,5.50
2019-05-06T04:14:54.030Z,5.50
2019-05-06T04:17:25.448Z,5.60
2019-05-06T04:19:58.219Z,5.70
2019-05-06T04:22:34.537Z,5.70
2019-05-06T04:25:10.024Z,5.70
2019-05-06T04:27:42.784Z,5.70
2019-05-06T04:30:13.637Z,5.70
2019-05-06T04:32:44.086Z,5.70
2019-05-06T04:35:13.458Z,5.70
2019-05-06T04:37:44.526Z,5.70
2019-05-06T04:40:13.201Z,5.70
2019-05-06T04:42:44.462Z,5.80
2019-05-06T04:45:13.456Z,5.80
2019-05-06T04:47:44.638Z,5.90
2019-05-06T04:50:16.332Z,5.90
2019-05-06T04:52:44.904Z,5.90
2019-05-06T04:55:19.134Z,5.90
2019-05-06T04:57:47.817Z,6.00
2019-05-06T05:00:19.237Z,6.00
2019-05-06T05:02:49.354Z,6.00
2019-05-06T05:05:18.313Z,6.10
2019-05-06T05:07:46.639Z,6.10
2019-05-06T05:10:19.648Z,6.10
2019-05-06T05:13:03.572Z,6.10
2019-05-06T05:15:33.903Z,6.10
2019-05-06T05:18:23.604Z,6.10
2019-05-06T05:20:52.978Z,6.20
2019-05-06T05:23:22.907Z,6.30
2019-05-06T05:25:52.312Z,6.40
2019-05-06T05:28:22.300Z,6.50
2019-05-06T05:30:54.062Z,6.60
2019-05-06T05:33:22.630Z,6.70
2019-05-06T05:35:52.576Z,6.90
2019-05-06T05:38:22.739Z,6.90
2019-05-06T05:40:52.417Z,7.10
2019-05-06T05:46:29.244Z,7.10
2019-05-06T05:49:00.062Z,7.10
2019-05-06T05:51:28.509Z,7.10
2019-05-06T05:53:56.890Z,7.10
2019-05-06T05:56:25.607Z,7.10
2019-05-06T05:58:56.912Z,7.30
2019-05-06T06:01:25.449Z,7.20
2019-05-06T06:03:54.399Z,7.20
2019-05-06T06:06:22.964Z,7.00
2019-05-06T06:08:52.350Z,7.00
2019-05-06T06:11:23.395Z,7.00
2019-05-06T06:13:52.560Z,7.10
2019-05-06T06:16:28.970Z,7.10
2019-05-06T06:19:00.060Z,7.10
2019-05-06T06:21:32.234Z,7.40
2019-05-06T06:24:02.859Z,7.40
2019-05-06T06:26:32.545Z,7.50
2019-05-06T06:29:03.242Z,7.70
2019-05-06T06:31:33.577Z,7.80
2019-05-06T06:34:09.295Z,7.70
2019-05-06T06:36:39.385Z,7.40
2019-05-06T06:39:12.662Z,7.40
2019-05-06T06:41:42.345Z,7.40
2019-05-06T06:44:13.255Z,7.50
2019-05-06T06:46:45.247Z,7.60
2019-05-06T06:49:14.166Z,7.80
2019-05-06T06:51:46.876Z,7.90
2019-05-06T06:54:16.638Z,7.90
2019-05-06T06:57:08.278Z,7.90
2019-05-06T06:59:40.183Z,7.80
2019-05-06T07:02:13.400Z,7.70
2019-05-06T07:04:49.469Z,7.60
2019-05-06T07:07:19.566Z,7.40
2019-05-06T07:09:48.521Z,7.40
2019-05-06T07:12:17.203Z,7.40
2019-05-06T07:14:45.755Z,7.40
2019-05-06T07:17:15.236Z,7.40
2019-05-06T07:19:46.094Z,7.40
2019-05-06T07:22:15.182Z,7.20
2019-05-06T07:24:43.712Z,7.20
2019-05-06T07:27:13.693Z,7.30
2019-05-06T07:29:48.331Z,7.40
2019-05-06T07:32:13.447Z,7.40
2019-05-06T07:34:44.435Z,7.30
2019-05-06T07:37:13.248Z,7.40
2019-05-06T07:39:48.036Z,7.50
2019-05-06T07:42:18.712Z,7.40
2019-05-06T07:44:53.038Z,7.40
2019-05-06T07:47:33.152Z,7.40
2019-05-06T07:50:03.280Z,7.50
2019-05-06T07:52:32.562Z,7.60
2019-05-06T07:55:02.610Z,7.70
2019-05-06T07:57:32.822Z,7.70
2019-05-06T08:00:03.414Z,7.70
2019-05-06T08:02:33.143Z,7.70
2019-05-06T08:05:02.743Z,7.80
2019-05-06T08:07:33.295Z,7.80
2019-05-06T08:10:06.565Z,7.90
2019-05-06T08:12:38.042Z,8.00
2019-05-06T08:15:07.948Z,8.00
2019-05-06T08:17:37.980Z,8.10
2019-05-06T08:20:09.507Z,8.10
2019-05-06T08:22:56.624Z,8.10
2019-05-06T08:25:25.544Z,8.20
2019-05-06T08:27:55.246Z,8.10
2019-05-06T08:30:24.731Z,8.20
2019-05-06T08:32:54.061Z,8.20
2019-05-06T08:35:22.905Z,8.10
2019-05-06T08:37:53.137Z,8.20
2019-05-06T08:40:22.722Z,8.30
2019-05-06T08:42:53.174Z,8.50
2019-05-06T08:45:22.431Z,8.50
2019-05-06T08:47:52.381Z,8.50
2019-05-06T08:50:22.086Z,8.30
2019-05-06T08:52:58.354Z,8.20
2019-05-06T08:55:28.778Z,8.20
2019-05-06T08:57:57.447Z,8.20
2019-05-06T09:00:26.299Z,8.10
2019-05-06T09:02:54.924Z,8.10
2019-05-06T09:05:23.693Z,8.20
2019-05-06T09:07:52.746Z,8.30
2019-05-06T09:10:22.681Z,8.30
2019-05-06T09:12:52.553Z,8.40
2019-05-06T09:15:21.990Z,8.30
2019-05-06T09:17:52.501Z,8.30
2019-05-06T09:20:20.109Z,8.30
2019-05-06T09:22:48.675Z,8.40
2019-05-06T09:25:17.263Z,8.50
2019-05-06T09:27:47.505Z,8.70
2019-05-06T09:30:35.104Z,8.70
2019-05-06T09:33:03.582Z,8.70
2019-05-06T09:35:32.918Z,8.80
2019-05-06T09:38:02.646Z,8.90
2019-05-06T09:40:31.920Z,8.90
2019-05-06T09:43:04.472Z,9.00
2019-05-06T09:45:32.978Z,9.00
2019-05-06T09:48:06.646Z,9.10
2019-05-06T09:50:45.514Z,9.10
2019-05-06T09:53:16.314Z,9.20
2019-05-06T09:56:04.960Z,9.00
2019-05-06T09:58:38.650Z,9.00
2019-05-06T10:01:07.324Z,9.00
2019-05-06T10:03:35.803Z,9.20
2019-05-06T10:06:04.393Z,9.10
2019-05-06T10:08:33.365Z,8.90
2019-05-06T10:11:03.226Z,8.70
2019-05-06T10:13:32.767Z,8.60
2019-05-06T10:16:02.980Z,8.60
2019-05-06T10:18:31.815Z,8.80
2019-05-06T10:21:00.254Z,8.90
2019-05-06T10:23:28.931Z,8.60
2019-05-06T10:25:57.972Z,8.60
2019-05-06T10:28:28.394Z,8.70
2019-05-06T10:30:57.334Z,8.80
2019-05-06T10:33:27.343Z,8.80
2019-05-06T10:35:57.140Z,8.90
2019-05-06T10:38:49.578Z,9.00
2019-05-06T10:41:22.182Z,9.20
2019-05-06T10:44:22.621Z,9.20
2019-05-06T10:46:53.432Z,9.40
2019-05-06T10:49:22.561Z,9.30
2019-05-06T10:52:07.757Z,9.40
2019-05-06T10:54:38.366Z,9.50
2019-05-06T10:57:12.599Z,9.50
2019-05-06T10:59:42.917Z,9.50
2019-05-06T11:02:23.252Z,9.60
2019-05-06T11:04:52.943Z,9.70
2019-05-06T11:07:31.438Z,9.80
2019-05-06T11:09:53.314Z,9.80
2019-05-06T11:12:22.083Z,9.90
2019-05-06T11:14:53.301Z,9.80
2019-05-06T11:17:23.223Z,9.60
2019-05-06T11:19:53.157Z,9.60
2019-05-06T11:22:22.260Z,9.50
2019-05-06T11:24:51.316Z,9.40
2019-05-06T11:27:28.820Z,9.40
2019-05-06T11:29:53.089Z,9.50
2019-05-06T11:32:35.256Z,9.40
2019-05-06T11:35:06.570Z,9.50
2019-05-06T11:37:49.846Z,9.50
2019-05-06T11:40:16.773Z,9.50
2019-05-06T11:42:44.683Z,9.50
2019-05-06T11:45:13.407Z,9.40
2019-05-06T11:47:42.691Z,9.30
2019-05-06T11:50:12.948Z,9.10
2019-05-06T11:52:46.250Z,8.90
2019-05-06T11:55:28.814Z,9.00
2019-05-06T11:57:53.110Z,9.00
2019-05-06T12:00:23.994Z,9.20
2019-05-06T12:02:55.032Z,9.30
2019-05-06T12:05:24.432Z,9.40
2019-05-06T12:08:06.903Z,9.50
2019-05-06T12:10:25.878Z,9.40
2019-05-06T12:12:55.940Z,9.60
2019-05-06T12:15:25.330Z,9.70
2019-05-06T12:17:53.802Z,9.80
2019-05-06T12:20:22.702Z,9.90
2019-05-06T12:22:52.995Z,10.10
2019-05-06T12:25:23.616Z,10.10
2019-05-06T12:27:52.596Z,10.30
2019-05-06T12:30:23.470Z,10.40
2019-05-06T12:32:53.766Z,10.40
2019-05-06T12:35:23.063Z,10.70
2019-05-06T12:37:53.326Z,10.70
2019-05-06T12:40:21.909Z,10.70
2019-05-06T12:43:13.597Z,10.60
2019-05-06T12:45:43.771Z,10.40
2019-05-06T12:48:14.187Z,10.40
2019-05-06T12:50:43.178Z,10.40
2019-05-06T12:53:13.287Z,10.40
2019-05-06T12:55:43.115Z,10.30
2019-05-06T12:58:13.590Z,10.20
2019-05-06T13:00:44.484Z,10.10
2019-05-06T13:03:13.134Z,10.20
2019-05-06T13:05:42.817Z,10.20
2019-05-06T13:08:19.044Z,10.20
2019-05-06T13:10:44.704Z,10.20
2019-05-06T13:13:14.159Z,10.10
2019-05-06T13:15:43.681Z,10.00
2019-05-06T13:18:12.449Z,9.70
2019-05-06T13:20:50.165Z,9.60
2019-05-06T13:23:20.930Z,9.60
2019-05-06T13:25:45.713Z,9.60
2019-05-06T13:28:16.255Z,9.70
2019-05-06T13:30:47.649Z,9.80
2019-05-06T13:33:21.544Z,9.90
2019-05-06T13:35:53.073Z,10.10
2019-05-06T13:38:22.714Z,10.10
2019-05-06T13:40:56.651Z,10.20
2019-05-06T13:43:26.048Z,10.20
2019-05-06T13:45:56.446Z,10.20
2019-05-06T13:48:29.282Z,10.30
2019-05-06T13:51:03.127Z,10.40
2019-05-06T13:53:39.051Z,10.40
2019-05-06T13:56:02.606Z,10.30
2019-05-06T13:58:32.329Z,10.30
2019-05-06T14:01:03.089Z,10.30
2019-05-06T14:03:32.707Z,10.40
2019-05-06T14:06:07.967Z,10.60
2019-05-06T14:08:34.985Z,10.60
2019-05-06T14:11:06.031Z,10.70
2019-05-06T14:13:49.896Z,10.80
2019-05-06T14:16:24.178Z,10.90
2019-05-06T14:18:53.188Z,11.00
2019-05-06T14:21:22.952Z,11.00
2019-05-06T14:23:55.542Z,10.90
2019-05-06T14:26:33.318Z,10.90
2019-05-06T14:29:08.217Z,10.90
2019-05-06T14:31:46.959Z,10.70
2019-05-06T14:34:33.497Z,10.80
2019-05-06T14:37:05.296Z,10.60
2019-05-06T14:39:52.122Z,10.50
2019-05-06T14:42:08.661Z,10.30
2019-05-06T14:44:44.721Z,10.10
2019-05-06T14:47:12.636Z,10.00
2019-05-06T14:49:53.031Z,9.90
2019-05-06T14:52:25.398Z,9.80
2019-05-06T14:54:56.866Z,9.60
2019-05-06T14:57:26.374Z,9.50
2019-05-06T14:59:55.964Z,9.30
2019-05-06T15:02:27.254Z,9.20
2019-05-06T15:04:57.619Z,9.20
2019-05-06T15:07:27.406Z,9.20
2019-05-06T15:10:18.864Z,9.10
2019-05-06T15:12:45.710Z,9.10
2019-05-06T15:15:23.122Z,9.00
2019-05-06T15:17:59.527Z,8.90
2019-05-06T15:20:36.983Z,9.00
2019-05-06T15:23:18.255Z,9.00
2019-05-06T15:25:49.457Z,8.90
2019-05-06T15:28:36.954Z,9.00
2019-05-06T15:31:16.695Z,9.10
2019-05-06T15:33:52.956Z,9.10
2019-05-06T15:36:34.736Z,9.00
2019-05-06T15:39:03.987Z,8.90
2019-05-06T15:41:32.878Z,8.90
2019-05-06T15:44:02.968Z,8.80
2019-05-06T15:46:32.303Z,8.80
2019-05-06T15:49:03.059Z,8.80
2019-05-06T15:51:34.451Z,8.90
2019-05-06T15:54:05.823Z,8.90
2019-05-06T15:56:34.943Z,8.90
2019-05-06T15:59:04.365Z,9.00
2019-05-06T16:01:38.166Z,9.00
2019-05-06T16:04:13.121Z,9.00
2019-05-06T16:06:46.594Z,8.90
2019-05-06T16:09:23.454Z,8.90
2019-05-06T16:12:12.746Z,8.90
2019-05-06T16:14:44.005Z,8.80
2019-05-06T16:17:23.878Z,8.70
2019-05-06T16:19:57.173Z,8.70
2019-05-06T16:22:30.427Z,8.60
2019-05-06T16:25:14.670Z,8.60
2019-05-06T16:27:52.179Z,8.50
2019-05-06T16:30:24.460Z,8.50
2019-05-06T16:32:57.668Z,8.50
2019-05-06T16:35:27.415Z,8.50
2019-05-06T16:38:12.988Z,8.50
2019-05-06T16:40:46.688Z,8.40
2019-05-06T16:43:22.160Z,8.50
2019-05-06T16:45:56.944Z,8.40
2019-05-06T16:48:28.454Z,8.40
2019-05-06T16:50:57.366Z,8.40
2019-05-06T16:53:29.894Z,8.40
2019-05-06T16:56:04.980Z,8.40
2019-05-06T16:58:38.762Z,8.40
2019-05-06T17:01:07.818Z,8.30
2019-05-06T17:03:44.234Z,8.30
2019-05-06T17:06:33.030Z,8.30
2019-05-06T17:09:17.218Z,8.30
2019-05-06T17:11:42.666Z,8.20
2019-05-06T17:14:12.260Z,8.30
2019-05-06T17:16:42.509Z,8.20
2019-05-06T17:19:12.860Z,8.20
2019-05-06T17:21:42.302Z,8.20
2019-05-06T17:24:13.062Z,8.20
2019-05-06T17:26:42.658Z,8.20
2019-05-06T17:29:19.002Z,8.20
2019-05-06T17:31:51.733Z,8.20
2019-05-06T17:34:32.922Z,8.10
2019-05-06T17:37:03.922Z,8.10
2019-05-06T17:39:42.396Z,8.10
2019-05-06T17:42:14.066Z,8.00
2019-05-06T17:44:44.071Z,8.00
2019-05-06T17:47:18.578Z,8.00
2019-05-06T17:49:55.445Z,8.00
2019-05-06T17:52:27.706Z,8.00
2019-05-06T17:54:59.094Z,7.90
2019-05-06T17:57:27.812Z,7.90
2019-05-06T17:59:56.621Z,7.90
2019-05-06T18:02:28.082Z,7.90
2019-05-06T18:05:03.015Z,7.80
2019-05-06T18:07:33.127Z,7.80
2019-05-06T18:10:03.037Z,7.80
2019-05-06T18:12:36.359Z,7.80
2019-05-06T18:15:09.871Z,7.80
2019-05-06T18:17:39.759Z,7.80
2019-05-06T18:20:10.027Z,7.80
2019-05-06T18:22:41.005Z,7.70
2019-05-06T18:25:12.629Z,7.70
2019-05-06T18:27:42.981Z,7.70
2019-05-06T18:30:22.099Z,7.70
2019-05-06T18:32:42.487Z,7.70
2019-05-06T18:35:13.078Z,7.60
2019-05-06T18:37:42.647Z,7.60
2019-05-06T18:40:12.102Z,7.60
2019-05-06T18:42:43.022Z,7.60
2019-05-06T18:45:12.784Z,7.60
2019-05-06T18:47:42.862Z,7.60
2019-05-06T18:50:12.513Z,7.60
2019-05-06T18:52:43.110Z,7.60
2019-05-06T18:55:13.015Z,7.60
2019-05-06T18:57:43.154Z,7.50
2019-05-06T19:00:15.585Z,7.50
2019-05-06T19:02:44.621Z,7.50
2019-05-06T19:05:14.805Z,7.50
2019-05-06T19:07:46.706Z,7.50
2019-05-06T19:10:19.031Z,7.50
2019-05-06T19:12:47.403Z,7.50
2019-05-06T19:15:16.977Z,7.50
2019-05-06T19:17:45.646Z,7.50
2019-05-06T19:20:14.457Z,7.40
2019-05-06T19:22:43.446Z,7.40
2019-05-06T19:25:15.291Z,7.40
2019-05-06T19:27:43.920Z,7.40
2019-05-06T19:30:13.194Z,7.40
2019-05-06T19:32:44.330Z,7.40
2019-05-06T19:35:13.264Z,7.40
2019-05-06T19:37:41.967Z,7.40
2019-05-06T19:40:12.118Z,7.40
2019-05-06T19:42:47.174Z,7.40
2019-05-06T19:45:12.925Z,7.40
2019-05-06T19:47:42.554Z,7.40
2019-05-06T19:50:10.471Z,7.40
2019-05-06T19:52:38.971Z,7.40
2019-05-06T19:55:07.796Z,7.30
2019-05-06T19:57:36.673Z,7.30
2019-05-06T20:00:05.456Z,7.40
2019-05-06T20:02:34.143Z,7.30
2019-05-06T20:05:04.076Z,7.30
2019-05-06T20:07:52.177Z,7.30
2019-05-06T20:10:34.550Z,7.30
2019-05-06T20:13:05.455Z,7.30
2019-05-06T20:15:35.968Z,7.20
2019-05-06T20:18:05.162Z,7.20
2019-05-06T20:20:35.065Z,7.20
2019-05-06T20:23:04.297Z,7.20
2019-05-06T20:25:32.974Z,7.20
2019-05-06T20:28:02.404Z,7.20
2019-05-06T20:30:32.653Z,7.20
2019-05-06T20:33:01.038Z,7.20
2019-05-06T20:35:29.489Z,7.10
2019-05-06T20:37:57.983Z,7.10
2019-05-06T20:40:26.906Z,7.20
2019-05-06T20:42:55.821Z,7.20
2019-05-06T20:45:24.744Z,7.10
2019-05-06T20:47:53.281Z,7.20
2019-05-06T20:50:22.556Z,7.10
2019-05-06T20:52:52.203Z,7.10
2019-05-06T20:55:22.859Z,7.20
2019-05-06T20:57:52.922Z,7.10
2019-05-06T21:00:22.381Z,7.10
2019-05-06T21:02:53.396Z,7.10
2019-05-06T21:05:22.760Z,7.10
2019-05-06T21:07:52.634Z,7.10
2019-05-06T21:10:22.068Z,7.10
2019-05-06T21:12:53.005Z,7.10
2019-05-06T21:15:22.942Z,7.10
2019-05-06T21:17:51.015Z,7.00
2019-05-06T21:20:19.428Z,7.10
2019-05-06T21:22:49.134Z,7.00
2019-05-06T21:25:18.293Z,7.00
2019-05-06T21:27:47.638Z,7.00
2019-05-06T21:30:16.440Z,7.00
2019-05-06T21:32:45.436Z,6.90
2019-05-06T21:35:14.729Z,6.80
2019-05-06T21:37:43.364Z,6.90
2019-05-06T21:40:12.507Z,6.90
2019-05-06T21:42:45.171Z,6.80
2019-05-06T21:45:22.011Z,6.80
2019-05-06T21:47:50.262Z,6.80
2019-05-06T21:50:19.118Z,6.80
2019-05-06T21:52:51.979Z,6.80
2019-05-06T21:55:22.695Z,6.80
2019-05-06T21:57:53.127Z,6.70
2019-05-06T22:00:28.034Z,6.60
2019-05-06T22:03:02.282Z,6.60
2019-05-06T22:05:37.620Z,6.60
2019-05-06T22:08:09.369Z,6.60
2019-05-06T22:10:39.231Z,6.50
2019-05-06T22:13:08.531Z,6.50
2019-05-06T22:15:42.096Z,6.50
2019-05-06T22:18:12.442Z,6.50
2019-05-06T22:20:58.642Z,6.50
2019-05-06T22:23:29.084Z,6.50
2019-05-06T22:26:08.530Z,6.40
2019-05-06T22:28:28.665Z,6.40
2019-05-06T22:30:57.374Z,6.40
2019-05-06T22:33:26.124Z,6.40
2019-05-06T22:35:55.412Z,6.30
2019-05-06T22:38:24.203Z,6.30
2019-05-06T22:40:53.084Z,6.20
2019-05-06T22:43:22.645Z,6.20
2019-05-06T22:45:53.205Z,6.20
2019-05-06T22:48:22.328Z,6.20
2019-05-06T22:50:52.921Z,6.20
2019-05-06T22:53:22.172Z,6.20
2019-05-06T22:55:52.506Z,6.10
2019-05-06T22:58:22.781Z,6.10
2019-05-06T23:00:56.204Z,6.10
2019-05-06T23:03:29.030Z,6.00
2019-05-06T23:05:57.819Z,6.00
2019-05-06T23:08:26.894Z,6.00
2019-05-06T23:10:55.929Z,6.00
2019-05-06T23:13:25.350Z,5.90
2019-05-06T23:15:54.155Z,5.90
2019-05-06T23:18:24.384Z,5.90
2019-05-06T23:20:54.413Z,5.90
2019-05-06T23:23:22.365Z,5.90
2019-05-06T23:26:09.151Z,5.90
2019-05-06T23:28:37.663Z,5.80
2019-05-06T23:31:06.551Z,5.90
2019-05-06T23:33:35.598Z,5.80
2019-05-06T23:36:04.089Z,5.80
2019-05-06T23:39:09.158Z,5.80
2019-05-06T23:42:16.183Z,5.70
2019-05-06T23:45:22.853Z,5.70
2019-05-06T23:48:27.822Z,5.70
2019-05-06T23:51:33.090Z,5.70
2019-05-06T23:54:37.476Z,5.60
2019-05-06T23:57:05.298Z,5.60
2019-05-06T23:59:35.297Z,5.60
